sensor_id;sensor_type;location;lat;lon;timestamp;temperature;humidity
4509;DHT22;2267;48.816;9.230;2023-04-24T00:01:56;14.40;99.90
4509;DHT22;2267;48.816;9.230;2023-04-24T00:04:25;14.40;99.90
4509;DHT22;2267;48.816;9.230;2023-04-24T00:06:52;14.40;99.90
4509;DHT22;2267;48.816;9.230;2023-04-24T00:09:23;14.40;99.90
4509;DHT22;2267;48.816;9.230;2023-04-24T00:11:50;14.40;99.90
4509;DHT22;2267;48.816;9.230;2023-04-24T00:14:17;14.50;99.90
4509;DHT22;2267;48.816;9.230;2023-04-24T00:16:44;14.40;99.90
4509;DHT22;2267;48.816;9.230;2023-04-24T00:19:11;14.40;99.90
4509;DHT22;2267;48.816;9.230;2023-04-24T00:21:40;14.40;99.90
4509;DHT22;2267;48.816;9.230;2023-04-24T00:24:07;14.40;99.90
4509;DHT22;2267;48.816;9.230;2023-04-24T00:26:37;14.40;99.90
4509;DHT22;2267;48.816;9.230;2023-04-24T00:29:04;14.40;99.90
4509;DHT22;2267;48.816;9.230;2023-04-24T00:31:31;14.40;99.90
4509;DHT22;2267;48.816;9.230;2023-04-24T00:33:58;14.40;99.90
4509;DHT22;2267;48.816;9.230;2023-04-24T00:36:24;14.40;99.90
4509;DHT22;2267;48.816;9.230;2023-04-24T00:38:51;14.30;99.90
4509;DHT22;2267;48.816;9.230;2023-04-24T00:41:18;14.30;99.90
4509;DHT22;2267;48.816;9.230;2023-04-24T00:43:45;14.40;99.90
4509;DHT22;2267;48.816;9.230;2023-04-24T00:46:13;14.30;99.90
4509;DHT22;2267;48.816;9.230;2023-04-24T00:48:40;14.30;99.90
4509;DHT22;2267;48.816;9.230;2023-04-24T00:51:07;14.30;99.90
4509;DHT22;2267;48.816;9.230;2023-04-24T00:53:34;14.30;99.90
4509;DHT22;2267;48.816;9.230;2023-04-24T00:56:02;14.20;99.90
4509;DHT22;2267;48.816;9.230;2023-04-24T00:58:29;14.20;99.90
4509;DHT22;2267;48.816;9.230;2023-04-24T01:00:57;14.20;99.90
4509;DHT22;2267;48.816;9.230;2023-04-24T01:03:27;14.20;99.90
4509;DHT22;2267;48.816;9.230;2023-04-24T01:05:55;14.20;99.90
4509;DHT22;2267;48.816;9.230;2023-04-24T01:08:24;14.30;99.90
4509;DHT22;2267;48.816;9.230;2023-04-24T01:10:52;14.30;99.90
4509;DHT22;2267;48.816;9.230;2023-04-24T01:13:19;14.20;99.90
4509;DHT22;2267;48.816;9.230;2023-04-24T01:15:48;14.20;99.90
4509;DHT22;2267;48.816;9.230;2023-04-24T01:18:15;14.30;99.90
4509;DHT22;2267;48.816;9.230;2023-04-24T01:20:43;14.30;99.90
4509;DHT22;2267;48.816;9.230;2023-04-24T01:23:11;14.30;99.90
4509;DHT22;2267;48.816;9.230;2023-04-24T01:25:38;14.30;99.90
4509;DHT22;2267;48.816;9.230;2023-04-24T01:28:05;14.30;99.90
4509;DHT22;2267;48.816;9.230;2023-04-24T01:30:32;14.30;99.90
4509;DHT22;2267;48.816;9.230;2023-04-24T01:32:59;14.40;99.90
4509;DHT22;2267;48.816;9.230;2023-04-24T01:35:27;14.30;99.90
4509;DHT22;2267;48.816;9.230;2023-04-24T01:37:54;14.30;99.90
4509;DHT22;2267;48.816;9.230;2023-04-24T01:40:21;14.30;99.90
4509;DHT22;2267;48.816;9.230;2023-04-24T01:42:48;14.30;99.90
4509;DHT22;2267;48.816;9.230;2023-04-24T01:45:15;14.30;99.90
4509;DHT22;2267;48.816;9.230;2023-04-24T01:47:41;14.30;99.90
4509;DHT22;2267;48.816;9.230;2023-04-24T01:50:09;14.30;99.90
4509;DHT22;2267;48.816;9.230;2023-04-24T01:52:36;14.30;99.90
4509;DHT22;2267;48.816;9.230;2023-04-24T01:55:04;14.30;99.90
4509;DHT22;2267;48.816;9.230;2023-04-24T01:57:31;14.30;99.90
4509;DHT22;2267;48.816;9.230;2023-04-24T01:59:58;14.30;99.90
4509;DHT22;2267;48.816;9.230;2023-04-24T02:02:25;14.30;99.90
4509;DHT22;2267;48.816;9.230;2023-04-24T02:04:54;14.30;99.90
4509;DHT22;2267;48.816;9.230;2023-04-24T02:07:22;14.30;99.90
4509;DHT22;2267;48.816;9.230;2023-04-24T02:09:48;14.30;99.90
4509;DHT22;2267;48.816;9.230;2023-04-24T02:12:16;14.30;99.90
4509;DHT22;2267;48.816;9.230;2023-04-24T02:14:44;14.20;99.90
4509;DHT22;2267;48.816;9.230;2023-04-24T02:17:11;14.20;99.90
4509;DHT22;2267;48.816;9.230;2023-04-24T02:19:38;14.20;99.90
4509;DHT22;2267;48.816;9.230;2023-04-24T02:22:06;14.20;99.90
4509;DHT22;2267;48.816;9.230;2023-04-24T02:24:32;14.20;99.90
4509;DHT22;2267;48.816;9.230;2023-04-24T02:26:59;14.20;99.90
4509;DHT22;2267;48.816;9.230;2023-04-24T02:29:26;14.20;99.90
4509;DHT22;2267;48.816;9.230;2023-04-24T02:31:53;14.20;99.90
4509;DHT22;2267;48.816;9.230;2023-04-24T02:34:20;14.20;99.90
4509;DHT22;2267;48.816;9.230;2023-04-24T02:36:47;14.20;99.90
4509;DHT22;2267;48.816;9.230;2023-04-24T02:39:14;14.20;99.90
4509;DHT22;2267;48.816;9.230;2023-04-24T02:41:43;14.20;99.90
4509;DHT22;2267;48.816;9.230;2023-04-24T02:44:10;14.20;99.90
4509;DHT22;2267;48.816;9.230;2023-04-24T02:46:36;14.20;99.90
4509;DHT22;2267;48.816;9.230;2023-04-24T02:49:03;14.20;99.90
4509;DHT22;2267;48.816;9.230;2023-04-24T02:51:30;14.20;99.90
4509;DHT22;2267;48.816;9.230;2023-04-24T02:53:57;14.10;99.90
4509;DHT22;2267;48.816;9.230;2023-04-24T02:56:24;14.10;99.90
4509;DHT22;2267;48.816;9.230;2023-04-24T02:58:51;14.00;99.90
4509;DHT22;2267;48.816;9.230;2023-04-24T03:01:17;13.90;99.90
4509;DHT22;2267;48.816;9.230;2023-04-24T03:03:44;13.90;99.90
4509;DHT22;2267;48.816;9.230;2023-04-24T03:06:11;13.80;99.90
4509;DHT22;2267;48.816;9.230;2023-04-24T03:08:38;13.80;99.90
4509;DHT22;2267;48.816;9.230;2023-04-24T03:11:05;13.80;99.90
4509;DHT22;2267;48.816;9.230;2023-04-24T03:13:31;13.80;99.90
4509;DHT22;2267;48.816;9.230;2023-04-24T03:15:58;13.80;99.90
4509;DHT22;2267;48.816;9.230;2023-04-24T03:18:25;13.90;99.90
4509;DHT22;2267;48.816;9.230;2023-04-24T03:20:52;13.90;99.90
4509;DHT22;2267;48.816;9.230;2023-04-24T03:23:19;13.90;99.90
4509;DHT22;2267;48.816;9.230;2023-04-24T03:25:46;13.90;99.90
4509;DHT22;2267;48.816;9.230;2023-04-24T03:28:14;13.90;99.90
4509;DHT22;2267;48.816;9.230;2023-04-24T03:30:41;13.90;99.90
4509;DHT22;2267;48.816;9.230;2023-04-24T03:33:08;13.90;99.90
4509;DHT22;2267;48.816;9.230;2023-04-24T03:35:36;13.90;99.90
4509;DHT22;2267;48.816;9.230;2023-04-24T03:38:03;13.90;99.90
4509;DHT22;2267;48.816;9.230;2023-04-24T03:40:31;13.80;99.90
4509;DHT22;2267;48.816;9.230;2023-04-24T03:42:59;13.70;99.90
4509;DHT22;2267;48.816;9.230;2023-04-24T03:45:26;13.70;99.90
4509;DHT22;2267;48.816;9.230;2023-04-24T03:47:53;13.70;99.90
4509;DHT22;2267;48.816;9.230;2023-04-24T03:50:20;13.60;99.90
4509;DHT22;2267;48.816;9.230;2023-04-24T03:52:47;13.60;99.90
4509;DHT22;2267;48.816;9.230;2023-04-24T03:55:14;13.60;99.90
4509;DHT22;2267;48.816;9.230;2023-04-24T03:57:41;13.60;99.90
4509;DHT22;2267;48.816;9.230;2023-04-24T04:00:08;13.60;99.90
4509;DHT22;2267;48.816;9.230;2023-04-24T04:02:35;13.60;99.90
4509;DHT22;2267;48.816;9.230;2023-04-24T04:05:02;13.60;99.90
4509;DHT22;2267;48.816;9.230;2023-04-24T04:07:29;13.60;99.90
4509;DHT22;2267;48.816;9.230;2023-04-24T04:09:56;13.60;99.90
4509;DHT22;2267;48.816;9.230;2023-04-24T04:12:23;13.60;99.90
4509;DHT22;2267;48.816;9.230;2023-04-24T04:14:50;13.70;99.90
4509;DHT22;2267;48.816;9.230;2023-04-24T04:17:16;13.70;99.90
4509;DHT22;2267;48.816;9.230;2023-04-24T04:19:44;13.70;99.90
4509;DHT22;2267;48.816;9.230;2023-04-24T04:22:11;13.70;99.90
4509;DHT22;2267;48.816;9.230;2023-04-24T04:24:38;13.70;99.90
4509;DHT22;2267;48.816;9.230;2023-04-24T04:27:07;13.70;99.90
4509;DHT22;2267;48.816;9.230;2023-04-24T04:29:35;13.70;99.90
4509;DHT22;2267;48.816;9.230;2023-04-24T04:32:02;13.70;99.90
4509;DHT22;2267;48.816;9.230;2023-04-24T04:34:29;13.70;99.90
4509;DHT22;2267;48.816;9.230;2023-04-24T04:36:56;13.60;99.90
4509;DHT22;2267;48.816;9.230;2023-04-24T04:39:26;13.50;99.90
4509;DHT22;2267;48.816;9.230;2023-04-24T04:41:54;13.50;99.90
4509;DHT22;2267;48.816;9.230;2023-04-24T04:44:21;13.50;99.90
4509;DHT22;2267;48.816;9.230;2023-04-24T04:46:48;13.50;99.90
4509;DHT22;2267;48.816;9.230;2023-04-24T04:49:15;13.50;99.90
4509;DHT22;2267;48.816;9.230;2023-04-24T04:51:43;13.50;99.90
4509;DHT22;2267;48.816;9.230;2023-04-24T04:54:10;13.50;99.90
4509;DHT22;2267;48.816;9.230;2023-04-24T04:56:36;13.50;99.90
4509;DHT22;2267;48.816;9.230;2023-04-24T04:59:03;13.50;99.90
4509;DHT22;2267;48.816;9.230;2023-04-24T05:01:30;13.50;99.90
4509;DHT22;2267;48.816;9.230;2023-04-24T05:03:57;13.50;99.90
4509;DHT22;2267;48.816;9.230;2023-04-24T05:06:24;13.50;99.90
4509;DHT22;2267;48.816;9.230;2023-04-24T05:08:51;13.50;99.90
4509;DHT22;2267;48.816;9.230;2023-04-24T05:11:23;13.50;99.90
4509;DHT22;2267;48.816;9.230;2023-04-24T05:13:49;13.50;99.90
4509;DHT22;2267;48.816;9.230;2023-04-24T05:16:16;13.50;99.90
4509;DHT22;2267;48.816;9.230;2023-04-24T05:18:43;13.50;99.90
4509;DHT22;2267;48.816;9.230;2023-04-24T05:21:10;13.50;99.90
4509;DHT22;2267;48.816;9.230;2023-04-24T05:23:36;13.50;99.90
4509;DHT22;2267;48.816;9.230;2023-04-24T05:26:03;13.50;99.90
4509;DHT22;2267;48.816;9.230;2023-04-24T05:28:33;13.50;99.90
4509;DHT22;2267;48.816;9.230;2023-04-24T05:31:00;13.50;99.90
4509;DHT22;2267;48.816;9.230;2023-04-24T05:33:27;13.50;99.90
4509;DHT22;2267;48.816;9.230;2023-04-24T05:35:54;13.50;99.90
4509;DHT22;2267;48.816;9.230;2023-04-24T05:38:21;13.40;99.90
4509;DHT22;2267;48.816;9.230;2023-04-24T05:40:48;13.50;99.90
4509;DHT22;2267;48.816;9.230;2023-04-24T05:43:15;13.50;99.90
4509;DHT22;2267;48.816;9.230;2023-04-24T05:45:41;13.50;99.90
4509;DHT22;2267;48.816;9.230;2023-04-24T05:48:08;13.50;99.90
4509;DHT22;2267;48.816;9.230;2023-04-24T05:50:35;13.50;99.90
4509;DHT22;2267;48.816;9.230;2023-04-24T05:53:03;13.50;99.90
4509;DHT22;2267;48.816;9.230;2023-04-24T05:55:31;13.50;99.90
4509;DHT22;2267;48.816;9.230;2023-04-24T05:57:58;13.50;99.90
4509;DHT22;2267;48.816;9.230;2023-04-24T06:00:25;13.50;99.90
4509;DHT22;2267;48.816;9.230;2023-04-24T06:02:53;13.50;99.90
4509;DHT22;2267;48.816;9.230;2023-04-24T06:05:21;13.50;99.90
4509;DHT22;2267;48.816;9.230;2023-04-24T06:07:48;13.50;99.90
4509;DHT22;2267;48.816;9.230;2023-04-24T06:10:15;13.50;99.90
4509;DHT22;2267;48.816;9.230;2023-04-24T06:12:42;13.50;99.90
4509;DHT22;2267;48.816;9.230;2023-04-24T06:15:09;13.50;99.90
4509;DHT22;2267;48.816;9.230;2023-04-24T06:17:36;13.50;99.90
4509;DHT22;2267;48.816;9.230;2023-04-24T06:20:03;13.50;99.90
4509;DHT22;2267;48.816;9.230;2023-04-24T06:22:32;13.50;99.90
4509;DHT22;2267;48.816;9.230;2023-04-24T06:24:59;13.60;99.90
4509;DHT22;2267;48.816;9.230;2023-04-24T06:27:27;13.60;99.90
4509;DHT22;2267;48.816;9.230;2023-04-24T06:29:54;13.60;99.90
4509;DHT22;2267;48.816;9.230;2023-04-24T06:32:23;13.70;99.90
4509;DHT22;2267;48.816;9.230;2023-04-24T06:34:53;13.70;99.90
4509;DHT22;2267;48.816;9.230;2023-04-24T06:37:20;13.80;99.90
4509;DHT22;2267;48.816;9.230;2023-04-24T06:39:47;13.80;99.90
4509;DHT22;2267;48.816;9.230;2023-04-24T06:42:14;13.90;99.90
4509;DHT22;2267;48.816;9.230;2023-04-24T06:44:41;13.90;99.90
4509;DHT22;2267;48.816;9.230;2023-04-24T06:47:12;13.90;99.90
4509;DHT22;2267;48.816;9.230;2023-04-24T06:49:40;13.90;99.90
4509;DHT22;2267;48.816;9.230;2023-04-24T06:52:07;14.00;99.90
4509;DHT22;2267;48.816;9.230;2023-04-24T06:54:34;14.10;99.90
4509;DHT22;2267;48.816;9.230;2023-04-24T06:57:01;14.10;99.90
4509;DHT22;2267;48.816;9.230;2023-04-24T06:59:29;14.10;99.90
4509;DHT22;2267;48.816;9.230;2023-04-24T07:01:57;14.10;99.90
4509;DHT22;2267;48.816;9.230;2023-04-24T07:04:24;14.10;99.90
4509;DHT22;2267;48.816;9.230;2023-04-24T07:06:52;14.20;99.90
4509;DHT22;2267;48.816;9.230;2023-04-24T07:09:22;14.20;99.90
4509;DHT22;2267;48.816;9.230;2023-04-24T07:11:50;14.20;99.60
4509;DHT22;2267;48.816;9.230;2023-04-24T07:14:17;14.10;99.20
4509;DHT22;2267;48.816;9.230;2023-04-24T07:16:44;14.10;99.10
4509;DHT22;2267;48.816;9.230;2023-04-24T07:19:12;14.10;99.20
4509;DHT22;2267;48.816;9.230;2023-04-24T07:21:40;14.10;99.50
4509;DHT22;2267;48.816;9.230;2023-04-24T07:24:07;14.10;99.20
4509;DHT22;2267;48.816;9.230;2023-04-24T07:26:38;14.10;99.00
4509;DHT22;2267;48.816;9.230;2023-04-24T07:29:06;14.10;98.90
4509;DHT22;2267;48.816;9.230;2023-04-24T07:31:33;14.10;99.10
4509;DHT22;2267;48.816;9.230;2023-04-24T07:34:01;14.10;98.90
4509;DHT22;2267;48.816;9.230;2023-04-24T07:36:28;14.00;98.00
4509;DHT22;2267;48.816;9.230;2023-04-24T07:38:55;14.00;97.10
4509;DHT22;2267;48.816;9.230;2023-04-24T07:41:23;14.00;96.30
4509;DHT22;2267;48.816;9.230;2023-04-24T07:43:51;13.90;96.20
4509;DHT22;2267;48.816;9.230;2023-04-24T07:46:19;13.90;96.40
4509;DHT22;2267;48.816;9.230;2023-04-24T07:48:46;13.90;95.90
4509;DHT22;2267;48.816;9.230;2023-04-24T07:51:31;14.00;95.90
4509;DHT22;2267;48.816;9.230;2023-04-24T07:53:59;14.00;95.20
4509;DHT22;2267;48.816;9.230;2023-04-24T07:56:25;13.90;94.80
4509;DHT22;2267;48.816;9.230;2023-04-24T07:58:53;14.00;94.70
4509;DHT22;2267;48.816;9.230;2023-04-24T08:01:20;13.90;93.30
4509;DHT22;2267;48.816;9.230;2023-04-24T08:03:47;13.90;93.30
4509;DHT22;2267;48.816;9.230;2023-04-24T08:06:14;13.90;93.10
4509;DHT22;2267;48.816;9.230;2023-04-24T08:08:41;13.90;93.10
4509;DHT22;2267;48.816;9.230;2023-04-24T08:11:08;13.90;92.50
4509;DHT22;2267;48.816;9.230;2023-04-24T08:13:35;13.90;92.10
4509;DHT22;2267;48.816;9.230;2023-04-24T08:16:02;13.80;91.90
4509;DHT22;2267;48.816;9.230;2023-04-24T08:18:29;13.80;92.10
4509;DHT22;2267;48.816;9.230;2023-04-24T08:20:55;13.80;92.50
4509;DHT22;2267;48.816;9.230;2023-04-24T08:23:27;13.80;92.50
4509;DHT22;2267;48.816;9.230;2023-04-24T08:25:56;13.90;92.40
4509;DHT22;2267;48.816;9.230;2023-04-24T08:28:23;13.90;92.60
4509;DHT22;2267;48.816;9.230;2023-04-24T08:30:50;13.90;92.30
4509;DHT22;2267;48.816;9.230;2023-04-24T08:33:24;14.00;92.20
4509;DHT22;2267;48.816;9.230;2023-04-24T08:35:51;14.10;92.90
4509;DHT22;2267;48.816;9.230;2023-04-24T08:38:19;14.20;93.30
4509;DHT22;2267;48.816;9.230;2023-04-24T08:40:46;14.30;94.00
4509;DHT22;2267;48.816;9.230;2023-04-24T08:43:16;14.30;91.90
4509;DHT22;2267;48.816;9.230;2023-04-24T08:45:43;14.30;91.90
4509;DHT22;2267;48.816;9.230;2023-04-24T08:48:11;14.40;91.60
4509;DHT22;2267;48.816;9.230;2023-04-24T08:50:56;14.30;91.20
4509;DHT22;2267;48.816;9.230;2023-04-24T08:53:25;14.30;92.00
4509;DHT22;2267;48.816;9.230;2023-04-24T08:55:54;14.30;91.70
4509;DHT22;2267;48.816;9.230;2023-04-24T08:58:24;14.30;92.10
4509;DHT22;2267;48.816;9.230;2023-04-24T09:00:54;14.30;92.20
4509;DHT22;2267;48.816;9.230;2023-04-24T09:03:22;14.30;92.20
4509;DHT22;2267;48.816;9.230;2023-04-24T09:05:50;14.30;91.60
4509;DHT22;2267;48.816;9.230;2023-04-24T09:08:19;14.30;91.90
4509;DHT22;2267;48.816;9.230;2023-04-24T09:10:46;14.20;92.10
4509;DHT22;2267;48.816;9.230;2023-04-24T09:13:19;14.30;92.50
4509;DHT22;2267;48.816;9.230;2023-04-24T09:15:47;14.30;91.90
4509;DHT22;2267;48.816;9.230;2023-04-24T09:18:13;14.10;91.10
4509;DHT22;2267;48.816;9.230;2023-04-24T09:21:03;14.00;91.30
4509;DHT22;2267;48.816;9.230;2023-04-24T09:23:31;13.90;91.60
4509;DHT22;2267;48.816;9.230;2023-04-24T09:26:00;13.90;92.80
4509;DHT22;2267;48.816;9.230;2023-04-24T09:28:47;13.80;93.40
4509;DHT22;2267;48.816;9.230;2023-04-24T09:31:18;13.60;93.70
4509;DHT22;2267;48.816;9.230;2023-04-24T09:33:55;13.50;94.20
4509;DHT22;2267;48.816;9.230;2023-04-24T09:36:33;13.50;94.60
4509;DHT22;2267;48.816;9.230;2023-04-24T09:39:01;13.50;94.90
4509;DHT22;2267;48.816;9.230;2023-04-24T09:41:28;13.50;94.80
4509;DHT22;2267;48.816;9.230;2023-04-24T09:43:56;13.50;94.90
4509;DHT22;2267;48.816;9.230;2023-04-24T09:46:30;13.50;94.70
4509;DHT22;2267;48.816;9.230;2023-04-24T09:49:11;13.50;94.60
4509;DHT22;2267;48.816;9.230;2023-04-24T09:51:38;13.50;94.70
4509;DHT22;2267;48.816;9.230;2023-04-24T09:54:20;13.70;94.80
4509;DHT22;2267;48.816;9.230;2023-04-24T09:56:50;13.80;94.90
4509;DHT22;2267;48.816;9.230;2023-04-24T09:59:19;13.80;94.20
4509;DHT22;2267;48.816;9.230;2023-04-24T10:01:46;13.90;94.50
4509;DHT22;2267;48.816;9.230;2023-04-24T10:04:19;13.90;93.60
4509;DHT22;2267;48.816;9.230;2023-04-24T10:06:48;14.00;93.10
4509;DHT22;2267;48.816;9.230;2023-04-24T10:09:16;14.00;93.20
4509;DHT22;2267;48.816;9.230;2023-04-24T10:11:44;14.10;93.00
4509;DHT22;2267;48.816;9.230;2023-04-24T10:14:20;14.10;92.30
4509;DHT22;2267;48.816;9.230;2023-04-24T10:16:48;14.10;91.70
4509;DHT22;2267;48.816;9.230;2023-04-24T10:19:16;14.20;91.60
4509;DHT22;2267;48.816;9.230;2023-04-24T10:21:44;14.30;91.40
4509;DHT22;2267;48.816;9.230;2023-04-24T10:24:15;14.20;90.90
4509;DHT22;2267;48.816;9.230;2023-04-24T10:26:43;14.20;90.50
4509;DHT22;2267;48.816;9.230;2023-04-24T10:29:11;14.30;89.60
4509;DHT22;2267;48.816;9.230;2023-04-24T10:31:39;14.30;87.40
4509;DHT22;2267;48.816;9.230;2023-04-24T10:34:08;14.30;87.60
4509;DHT22;2267;48.816;9.230;2023-04-24T10:36:38;14.30;87.60
4509;DHT22;2267;48.816;9.230;2023-04-24T10:39:09;14.30;87.00
4509;DHT22;2267;48.816;9.230;2023-04-24T10:41:37;14.30;86.20
4509;DHT22;2267;48.816;9.230;2023-04-24T10:44:11;14.30;85.70
4509;DHT22;2267;48.816;9.230;2023-04-24T10:46:43;14.20;85.60
4509;DHT22;2267;48.816;9.230;2023-04-24T10:49:10;14.20;86.50
4509;DHT22;2267;48.816;9.230;2023-04-24T10:51:53;14.10;86.30
4509;DHT22;2267;48.816;9.230;2023-04-24T10:54:44;14.20;86.40
4509;DHT22;2267;48.816;9.230;2023-04-24T10:59:50;14.20;87.50
4509;DHT22;2267;48.816;9.230;2023-04-24T11:02:19;14.20;85.80
4509;DHT22;2267;48.816;9.230;2023-04-24T11:05:05;14.20;85.90
4509;DHT22;2267;48.816;9.230;2023-04-24T11:10:39;14.20;86.80
4509;DHT22;2267;48.816;9.230;2023-04-24T11:13:06;14.20;86.20
4509;DHT22;2267;48.816;9.230;2023-04-24T11:15:34;14.20;86.50
4509;DHT22;2267;48.816;9.230;2023-04-24T11:18:01;14.20;86.40
4509;DHT22;2267;48.816;9.230;2023-04-24T11:20:28;14.10;86.20
4509;DHT22;2267;48.816;9.230;2023-04-24T11:23:03;14.10;86.60
4509;DHT22;2267;48.816;9.230;2023-04-24T11:25:31;14.20;87.80
4509;DHT22;2267;48.816;9.230;2023-04-24T11:28:07;14.20;88.20
4509;DHT22;2267;48.816;9.230;2023-04-24T11:30:34;14.30;87.70
4509;DHT22;2267;48.816;9.230;2023-04-24T11:33:03;14.20;86.10
4509;DHT22;2267;48.816;9.230;2023-04-24T11:35:35;14.30;85.30
4509;DHT22;2267;48.816;9.230;2023-04-24T11:38:06;14.30;85.40
4509;DHT22;2267;48.816;9.230;2023-04-24T11:40:37;14.30;85.70
4509;DHT22;2267;48.816;9.230;2023-04-24T11:43:06;14.30;85.40
4509;DHT22;2267;48.816;9.230;2023-04-24T11:45:34;14.30;85.10
4509;DHT22;2267;48.816;9.230;2023-04-24T11:48:02;14.30;86.60
4509;DHT22;2267;48.816;9.230;2023-04-24T11:50:30;14.30;86.10
4509;DHT22;2267;48.816;9.230;2023-04-24T11:52:57;14.30;85.80
4509;DHT22;2267;48.816;9.230;2023-04-24T11:55:26;14.30;86.40
4509;DHT22;2267;48.816;9.230;2023-04-24T11:57:55;14.30;87.60
4509;DHT22;2267;48.816;9.230;2023-04-24T12:00:28;14.30;88.50
4509;DHT22;2267;48.816;9.230;2023-04-24T12:03:11;14.30;90.30
4509;DHT22;2267;48.816;9.230;2023-04-24T12:05:39;14.20;89.80
4509;DHT22;2267;48.816;9.230;2023-04-24T12:08:07;14.30;89.40
4509;DHT22;2267;48.816;9.230;2023-04-24T12:10:34;14.40;89.30
4509;DHT22;2267;48.816;9.230;2023-04-24T12:13:01;14.40;89.70
4509;DHT22;2267;48.816;9.230;2023-04-24T12:15:29;14.50;89.50
4509;DHT22;2267;48.816;9.230;2023-04-24T12:17:56;14.60;88.40
4509;DHT22;2267;48.816;9.230;2023-04-24T12:20:28;14.60;88.10
4509;DHT22;2267;48.816;9.230;2023-04-24T12:23:02;14.60;87.80
4509;DHT22;2267;48.816;9.230;2023-04-24T12:25:33;14.60;87.70
4509;DHT22;2267;48.816;9.230;2023-04-24T12:30:33;14.60;88.00
4509;DHT22;2267;48.816;9.230;2023-04-24T12:33:01;14.60;87.90
4509;DHT22;2267;48.816;9.230;2023-04-24T12:35:31;14.60;88.10
4509;DHT22;2267;48.816;9.230;2023-04-24T12:38:10;14.50;87.60
4509;DHT22;2267;48.816;9.230;2023-04-24T12:40:42;14.50;86.60
4509;DHT22;2267;48.816;9.230;2023-04-24T12:43:17;14.50;87.40
4509;DHT22;2267;48.816;9.230;2023-04-24T12:45:45;14.50;87.70
4509;DHT22;2267;48.816;9.230;2023-04-24T12:48:12;14.50;87.00
4509;DHT22;2267;48.816;9.230;2023-04-24T12:50:41;14.40;86.50
4509;DHT22;2267;48.816;9.230;2023-04-24T12:53:11;14.40;86.90
4509;DHT22;2267;48.816;9.230;2023-04-24T12:55:38;14.40;86.80
4509;DHT22;2267;48.816;9.230;2023-04-24T12:58:05;14.50;87.20
4509;DHT22;2267;48.816;9.230;2023-04-24T13:00:32;14.40;86.20
4509;DHT22;2267;48.816;9.230;2023-04-24T13:02:59;14.40;86.40
4509;DHT22;2267;48.816;9.230;2023-04-24T13:05:27;14.40;86.60
4509;DHT22;2267;48.816;9.230;2023-04-24T13:07:54;14.30;89.30
4509;DHT22;2267;48.816;9.230;2023-04-24T13:10:21;14.20;91.80
4509;DHT22;2267;48.816;9.230;2023-04-24T13:12:48;14.00;93.10
4509;DHT22;2267;48.816;9.230;2023-04-24T13:15:15;13.90;94.00
4509;DHT22;2267;48.816;9.230;2023-04-24T13:17:42;14.00;94.50
4509;DHT22;2267;48.816;9.230;2023-04-24T13:20:09;14.10;95.00
4509;DHT22;2267;48.816;9.230;2023-04-24T13:22:36;14.20;95.00
4509;DHT22;2267;48.816;9.230;2023-04-24T13:25:04;14.30;95.10
4509;DHT22;2267;48.816;9.230;2023-04-24T13:27:32;14.40;95.00
4509;DHT22;2267;48.816;9.230;2023-04-24T13:30:00;14.50;94.70
4509;DHT22;2267;48.816;9.230;2023-04-24T13:32:26;14.50;94.20
4509;DHT22;2267;48.816;9.230;2023-04-24T13:34:56;14.50;94.30
4509;DHT22;2267;48.816;9.230;2023-04-24T13:37:23;14.60;94.00
4509;DHT22;2267;48.816;9.230;2023-04-24T13:39:50;14.50;93.00
4509;DHT22;2267;48.816;9.230;2023-04-24T13:42:18;14.50;92.70
4509;DHT22;2267;48.816;9.230;2023-04-24T13:44:45;14.60;92.50
4509;DHT22;2267;48.816;9.230;2023-04-24T13:47:12;14.50;92.00
4509;DHT22;2267;48.816;9.230;2023-04-24T13:49:39;14.50;92.10
4509;DHT22;2267;48.816;9.230;2023-04-24T13:52:06;14.50;92.00
4509;DHT22;2267;48.816;9.230;2023-04-24T13:54:33;14.50;91.60
4509;DHT22;2267;48.816;9.230;2023-04-24T13:57:00;14.50;91.60
4509;DHT22;2267;48.816;9.230;2023-04-24T13:59:29;14.30;92.10
4509;DHT22;2267;48.816;9.230;2023-04-24T14:01:56;14.30;92.90
4509;DHT22;2267;48.816;9.230;2023-04-24T14:04:23;14.40;93.80
4509;DHT22;2267;48.816;9.230;2023-04-24T14:06:50;14.40;94.00
4509;DHT22;2267;48.816;9.230;2023-04-24T14:09:17;14.40;93.60
4509;DHT22;2267;48.816;9.230;2023-04-24T14:11:44;14.60;94.40
4509;DHT22;2267;48.816;9.230;2023-04-24T14:14:11;14.70;94.20
4509;DHT22;2267;48.816;9.230;2023-04-24T14:16:38;14.90;94.00
4509;DHT22;2267;48.816;9.230;2023-04-24T14:19:05;15.20;93.70
4509;DHT22;2267;48.816;9.230;2023-04-24T14:21:33;15.10;92.60
4509;DHT22;2267;48.816;9.230;2023-04-24T14:24:00;15.20;92.70
4509;DHT22;2267;48.816;9.230;2023-04-24T14:26:26;15.30;92.90
4509;DHT22;2267;48.816;9.230;2023-04-24T14:28:53;15.40;93.10
4509;DHT22;2267;48.816;9.230;2023-04-24T14:31:36;15.50;93.20
4509;DHT22;2267;48.816;9.230;2023-04-24T14:34:03;15.60;93.00
4509;DHT22;2267;48.816;9.230;2023-04-24T14:36:30;15.80;92.30
4509;DHT22;2267;48.816;9.230;2023-04-24T14:38:58;15.90;91.50
4509;DHT22;2267;48.816;9.230;2023-04-24T14:41:24;16.00;91.90
4509;DHT22;2267;48.816;9.230;2023-04-24T14:43:51;16.20;91.00
4509;DHT22;2267;48.816;9.230;2023-04-24T14:46:18;16.10;90.90
4509;DHT22;2267;48.816;9.230;2023-04-24T14:48:45;16.00;90.90
4509;DHT22;2267;48.816;9.230;2023-04-24T14:51:12;15.80;90.50
4509;DHT22;2267;48.816;9.230;2023-04-24T14:53:39;15.70;90.80
4509;DHT22;2267;48.816;9.230;2023-04-24T14:56:06;15.60;90.60
4509;DHT22;2267;48.816;9.230;2023-04-24T14:58:32;15.50;90.30
4509;DHT22;2267;48.816;9.230;2023-04-24T15:00:59;15.40;90.20
4509;DHT22;2267;48.816;9.230;2023-04-24T15:03:26;15.40;90.20
4509;DHT22;2267;48.816;9.230;2023-04-24T15:05:53;15.40;90.30
4509;DHT22;2267;48.816;9.230;2023-04-24T15:08:20;15.40;89.90
4509;DHT22;2267;48.816;9.230;2023-04-24T15:10:47;15.60;90.00
4509;DHT22;2267;48.816;9.230;2023-04-24T15:13:14;15.70;89.80
4509;DHT22;2267;48.816;9.230;2023-04-24T15:15:41;15.60;89.60
4509;DHT22;2267;48.816;9.230;2023-04-24T15:18:09;15.60;90.00
4509;DHT22;2267;48.816;9.230;2023-04-24T15:20:38;15.50;90.20
4509;DHT22;2267;48.816;9.230;2023-04-24T15:23:08;15.50;90.40
4509;DHT22;2267;48.816;9.230;2023-04-24T15:25:36;15.50;90.60
4509;DHT22;2267;48.816;9.230;2023-04-24T15:28:03;15.40;90.30
4509;DHT22;2267;48.816;9.230;2023-04-24T15:30:31;15.30;90.20
4509;DHT22;2267;48.816;9.230;2023-04-24T15:32:59;15.20;90.10
4509;DHT22;2267;48.816;9.230;2023-04-24T15:35:27;15.10;89.50
4509;DHT22;2267;48.816;9.230;2023-04-24T15:37:53;15.10;90.00
4509;DHT22;2267;48.816;9.230;2023-04-24T15:40:20;15.00;90.20
4509;DHT22;2267;48.816;9.230;2023-04-24T15:42:47;15.00;91.80
4509;DHT22;2267;48.816;9.230;2023-04-24T15:45:14;14.90;92.80
4509;DHT22;2267;48.816;9.230;2023-04-24T15:47:41;14.80;93.40
4509;DHT22;2267;48.816;9.230;2023-04-24T15:50:08;14.80;93.70
4509;DHT22;2267;48.816;9.230;2023-04-24T15:52:39;14.80;93.10
4509;DHT22;2267;48.816;9.230;2023-04-24T15:55:06;14.80;93.50
4509;DHT22;2267;48.816;9.230;2023-04-24T15:57:33;14.80;93.40
4509;DHT22;2267;48.816;9.230;2023-04-24T16:00:01;14.80;93.50
4509;DHT22;2267;48.816;9.230;2023-04-24T16:02:28;14.90;93.40
4509;DHT22;2267;48.816;9.230;2023-04-24T16:04:55;14.80;93.50
4509;DHT22;2267;48.816;9.230;2023-04-24T16:07:22;14.90;93.10
4509;DHT22;2267;48.816;9.230;2023-04-24T16:09:49;14.90;93.20
4509;DHT22;2267;48.816;9.230;2023-04-24T16:12:16;14.90;93.10
4509;DHT22;2267;48.816;9.230;2023-04-24T16:14:43;14.90;93.20
4509;DHT22;2267;48.816;9.230;2023-04-24T16:17:09;14.90;92.80